CYDF/YDF METAR and TAF weather

Enter ICAO airport designator
Station Type Date Time Source
CYDF METAR 2019/04/21 22:00 UTC NOAA

CYDF 212200Z 23021KT 15SM FEW048 BKN073 17/12 A3008 RMK SC2AC5 SLP187 DENSITY ALT 200FT


Station Type Date Time Source
CYDF Decoded METAR 2019/04/21 22:00 UTC NOAA

Deer Lake, Nfld., Canada (CYDF) 49-13N 057-24W 22M
Apr 21, 2019 - 06:00 PM EDT / 2019.04.21 2200 UTC
Wind: from the SW (230 degrees) at 24 MPH (21 KT):0
Visibility: 15 mile(s):0
Sky conditions: mostly cloudy
Temperature: 62 F (17 C)
Dew Point: 53 F (12 C)
Relative Humidity: 72%
Pressure (altimeter): 30.08 in. Hg (1018 hPa)
ob: CYDF 212200Z 23021KT 15SM FEW048 BKN073 17/12 A3008 RMK SC2AC5 SLP187 DENSITY ALT 200FT
cycle: 22

Station Type Date Time Source
CYDF TAF 2019/04/21 20:39 UTC NOAA

TAF CYDF 211938Z 2120/2208 VRB03KT P6SM SCT012 OVC025
TEMPO 2120/2123 OVC012
BECMG 2120/2122 20010KT
FM212300 20010KT WS005/22030KT 6SM -RA BR SCT008 OVC015
TEMPO 2123/2208 2SM -RA BR SCT005 OVC008 PROB40 2123/2208 1SM -RA BR OVC005
RMK NXT FCST BY 220200Z

Example: see airport list